createdAt,value
2023-04-07T08:09:56.817Z,94.01
2023-04-07T08:12:28.244Z,94.68
2023-04-07T08:14:56.661Z,95.56
2023-04-07T08:17:23.712Z,96.11
2023-04-07T08:19:52.418Z,96.95
2023-04-07T08:22:21.469Z,97.81
2023-04-07T08:24:49.109Z,98.50
2023-04-07T08:27:16.808Z,98.56
2023-04-07T08:29:44.400Z,98.58
2023-04-07T08:32:11.574Z,98.60
2023-04-07T08:34:38.976Z,98.32
2023-04-07T08:37:09.756Z,97.86
2023-04-07T08:39:38.645Z,97.71
2023-04-07T08:42:05.697Z,98.47
2023-04-07T08:44:33.524Z,97.81
2023-04-07T08:47:02.026Z,97.38
2023-04-07T08:49:29.939Z,96.02
2023-04-07T08:51:57.075Z,90.72
2023-04-07T08:54:25.977Z,88.54
2023-04-07T08:56:53.800Z,82.95
2023-04-07T08:59:26.758Z,78.64
2023-04-07T09:01:55.099Z,78.17
2023-04-07T09:04:24.963Z,78.02
2023-04-07T09:06:52.721Z,78.27
2023-04-07T09:09:19.976Z,77.98
2023-04-07T09:11:50.460Z,74.76
2023-04-07T09:14:19.101Z,74.48
2023-04-07T09:16:47.448Z,74.72
2023-04-07T09:19:18.989Z,73.82
2023-04-07T09:21:53.391Z,74.06
2023-04-07T09:24:24.728Z,73.54
2023-04-07T09:27:02.047Z,72.56
2023-04-07T09:29:31.059Z,72.25
2023-04-07T09:31:58.388Z,72.25
2023-04-07T09:34:26.664Z,71.96
2023-04-07T09:36:54.932Z,70.66
2023-04-07T09:39:22.159Z,70.92
2023-04-07T09:41:49.215Z,70.30
2023-04-07T09:44:16.222Z,69.47
2023-04-07T09:46:53.310Z,67.88
2023-04-07T09:49:21.577Z,67.36
2023-04-07T09:52:11.327Z,66.94
2023-04-07T09:54:41.526Z,67.37
2023-04-07T09:57:09.663Z,67.42
2023-04-07T09:59:39.270Z,66.79
2023-04-07T10:02:07.652Z,65.90
2023-04-07T10:04:35.921Z,66.00
2023-04-07T10:07:04.093Z,66.65
2023-04-07T10:09:33.195Z,66.21
2023-04-07T10:12:00.450Z,65.36
2023-04-07T10:14:30.563Z,64.98
2023-04-07T10:17:00.391Z,63.34
2023-04-07T10:19:31.599Z,62.35
2023-04-07T10:21:58.697Z,61.98
2023-04-07T10:24:56.441Z,61.19
2023-04-07T10:27:52.260Z,60.73
2023-04-07T10:30:31.390Z,60.05
2023-04-07T10:33:19.044Z,59.80
2023-04-07T10:36:06.329Z,59.46
2023-04-07T10:38:33.874Z,58.74
2023-04-07T10:41:01.157Z,57.16
2023-04-07T10:51:06.408Z,54.15
2023-04-07T10:53:38.645Z,54.30
2023-04-07T10:56:06.051Z,53.97
2023-04-07T10:58:34.200Z,54.05
2023-04-07T11:01:01.600Z,52.80
2023-04-07T11:03:30.207Z,52.81
2023-04-07T11:06:14.157Z,53.02
2023-04-07T11:08:47.528Z,54.03
2023-04-07T11:11:38.948Z,54.48
2023-04-07T11:14:06.734Z,54.35
2023-04-07T11:16:38.318Z,54.01
2023-04-07T11:19:07.207Z,51.01
2023-04-07T11:21:34.495Z,48.08
2023-04-07T11:24:01.750Z,47.67
2023-04-07T11:26:30.515Z,46.84
2023-04-07T11:28:59.460Z,48.57
2023-04-07T11:31:29.217Z,50.73
2023-04-07T11:34:01.986Z,51.74
2023-04-07T11:36:35.328Z,56.43
2023-04-07T11:39:03.096Z,61.88
2023-04-07T11:41:33.052Z,64.24
2023-04-07T11:44:09.741Z,66.16
2023-04-07T11:46:38.977Z,68.56
2023-04-07T11:49:13.790Z,69.28
2023-04-07T11:52:21.194Z,71.17
2023-04-07T11:54:50.007Z,71.17
2023-04-07T11:57:28.158Z,71.48
2023-04-07T12:00:12.350Z,71.45
2023-04-07T12:06:49.089Z,71.33
2023-04-07T12:09:29.326Z,72.05
2023-04-07T12:11:57.190Z,70.92
2023-04-07T12:14:25.838Z,70.95
2023-04-07T12:16:53.062Z,70.39
2023-04-07T12:20:37.779Z,70.76
2023-04-07T12:23:06.413Z,71.55
2023-04-07T12:25:33.308Z,70.60
2023-04-07T12:28:01.872Z,69.21
2023-04-07T12:30:28.941Z,68.64
2023-04-07T12:32:56.092Z,68.27
2023-04-07T12:35:23.335Z,68.40
2023-04-07T12:37:51.518Z,68.02
2023-04-07T12:40:19.604Z,68.09
2023-04-07T12:42:47.687Z,68.15
2023-04-07T12:45:14.181Z,68.90
2023-04-07T12:47:44.744Z,68.88
2023-04-07T12:50:12.980Z,68.41
2023-04-07T12:52:43.506Z,68.42
2023-04-07T12:55:10.552Z,68.07
2023-04-07T12:57:37.518Z,68.59
2023-04-07T13:00:06.312Z,68.98
2023-04-07T13:02:36.323Z,67.63
2023-04-07T13:05:04.308Z,67.34
2023-04-07T13:07:31.320Z,66.17
2023-04-07T13:09:57.933Z,65.24
2023-04-07T13:12:25.520Z,65.15
2023-04-07T13:15:08.651Z,64.56
2023-04-07T13:17:36.375Z,64.50
2023-04-07T13:20:04.417Z,64.03
2023-04-07T13:22:32.158Z,63.82
2023-04-07T13:25:00.240Z,63.95
2023-04-07T13:27:29.201Z,63.85
2023-04-07T13:29:55.837Z,63.83
2023-04-07T13:32:48.809Z,63.58
2023-04-07T13:35:18.918Z,63.91
2023-04-07T13:37:45.655Z,64.21
2023-04-07T13:40:12.821Z,64.53
2023-04-07T13:42:39.870Z,64.98
2023-04-07T13:45:07.349Z,65.05
2023-04-07T13:47:34.778Z,65.39
2023-04-07T13:50:02.221Z,65.43
2023-04-07T13:52:29.656Z,65.08
2023-04-07T13:54:57.599Z,64.87
2023-04-07T13:57:24.332Z,64.76
2023-04-07T13:59:53.712Z,64.99
2023-04-07T14:02:21.098Z,64.89
2023-04-07T14:04:48.100Z,64.45
2023-04-07T14:07:14.930Z,64.06
2023-04-07T14:09:42.422Z,63.62
2023-04-07T14:12:09.382Z,63.73
2023-04-07T14:14:38.914Z,64.28
2023-04-07T14:17:05.699Z,64.57
2023-04-07T14:19:33.008Z,63.83
2023-04-07T14:21:59.770Z,63.51
2023-04-07T14:24:26.736Z,62.96
2023-04-07T14:26:54.628Z,62.50
2023-04-07T14:29:22.041Z,62.46
2023-04-07T14:31:49.097Z,62.82
2023-04-07T14:34:15.637Z,62.92
2023-04-07T14:36:53.111Z,63.06
2023-04-07T14:39:21.184Z,63.33
2023-04-07T14:41:47.828Z,63.53
2023-04-07T14:44:14.988Z,62.75
2023-04-07T14:46:42.332Z,63.10
2023-04-07T14:49:09.388Z,63.03
2023-04-07T14:51:36.017Z,62.37
2023-04-07T14:54:02.757Z,62.51
2023-04-07T14:56:29.505Z,61.93
2023-04-07T14:58:56.282Z,61.61
2023-04-07T15:01:22.970Z,61.40
2023-04-07T15:03:52.347Z,60.90
2023-04-07T15:06:19.329Z,60.58
2023-04-07T15:08:49.359Z,59.18
2023-04-07T15:11:16.015Z,58.54
2023-04-07T15:13:42.819Z,58.78
2023-04-07T15:16:13.504Z,58.87
2023-04-07T15:18:43.877Z,59.02
2023-04-07T15:21:10.720Z,59.31
2023-04-07T15:23:38.501Z,59.31
2023-04-07T15:26:05.698Z,59.28
2023-04-07T15:28:33.313Z,59.23
2023-04-07T15:31:00.791Z,59.21
2023-04-07T15:33:28.729Z,58.57
2023-04-07T15:35:55.681Z,58.07
2023-04-07T15:38:22.835Z,57.96
2023-04-07T15:40:50.919Z,57.93
2023-04-07T15:43:19.504Z,57.66
2023-04-07T15:45:46.941Z,57.85
2023-04-07T15:48:16.024Z,58.18
2023-04-07T15:50:43.065Z,58.24
2023-04-07T15:53:09.983Z,58.46
2023-04-07T15:55:36.813Z,58.59
2023-04-07T15:58:03.602Z,58.77
2023-04-07T16:00:32.618Z,59.06
2023-04-07T16:03:03.138Z,59.19
2023-04-07T16:05:30.272Z,58.91
2023-04-07T16:07:56.823Z,58.72
2023-04-07T16:10:23.389Z,58.93
2023-04-07T16:12:53.944Z,58.71
2023-04-07T16:15:36.468Z,58.52
2023-04-07T16:18:08.547Z,58.73
2023-04-07T16:20:35.500Z,58.85
2023-04-07T16:23:02.063Z,59.12
2023-04-07T16:25:29.479Z,59.07
2023-04-07T16:27:55.850Z,59.41
2023-04-07T16:30:24.644Z,59.75
2023-04-07T16:33:11.032Z,59.81
2023-04-07T16:35:37.830Z,59.62
2023-04-07T16:38:05.617Z,59.51
2023-04-07T16:40:33.403Z,59.37
2023-04-07T16:43:00.144Z,57.59
2023-04-07T16:45:26.688Z,57.31
2023-04-07T16:47:53.217Z,55.15
2023-04-07T16:50:22.415Z,52.62
2023-04-07T16:52:48.914Z,49.96
2023-04-07T16:55:15.489Z,48.89
2023-04-07T16:57:44.171Z,48.16
2023-04-07T17:00:11.409Z,46.71
2023-04-07T17:02:41.527Z,47.12
2023-04-07T17:05:09.135Z,47.59
2023-04-07T17:07:35.700Z,48.10
2023-04-07T17:10:06.774Z,48.22
2023-04-07T17:12:35.147Z,48.40
2023-04-07T17:15:08.950Z,47.79
2023-04-07T17:17:37.643Z,46.88
2023-04-07T17:28:03.096Z,47.01
2023-04-07T17:30:29.608Z,47.32
2023-04-07T17:32:56.302Z,47.81
2023-04-07T17:35:22.749Z,48.05
2023-04-07T17:37:50.444Z,48.49
2023-04-07T17:40:16.987Z,48.60
2023-04-07T17:42:44.431Z,47.61
2023-04-07T17:45:11.347Z,47.50
2023-04-07T17:47:38.314Z,48.07
2023-04-07T17:50:06.404Z,49.05
2023-04-07T17:52:33.046Z,49.09
2023-04-07T17:54:59.373Z,49.43
2023-04-07T17:57:25.984Z,49.86
2023-04-07T17:59:52.947Z,50.18
2023-04-07T18:02:19.621Z,49.86
2023-04-07T18:04:46.417Z,49.65
2023-04-07T18:07:13.288Z,50.02
2023-04-07T18:09:42.414Z,50.22
2023-04-07T18:12:08.912Z,50.43
2023-04-07T18:14:36.162Z,50.77
2023-04-07T18:17:02.460Z,50.99
2023-04-07T18:19:29.653Z,51.28
2023-04-07T18:21:56.082Z,51.35
2023-04-07T18:24:22.554Z,51.49
2023-04-07T18:26:49.644Z,51.61
2023-04-07T18:29:16.194Z,52.12
2023-04-07T18:31:43.322Z,52.53
2023-04-07T18:34:10.542Z,52.84
2023-04-07T18:36:42.770Z,53.12
2023-04-07T18:39:09.491Z,53.31
2023-04-07T18:41:36.075Z,53.45
2023-04-07T18:44:02.729Z,53.50
2023-04-07T18:46:29.747Z,53.63
2023-04-07T18:48:59.434Z,53.60
2023-04-07T18:51:26.061Z,53.67
2023-04-07T18:53:54.443Z,53.82
2023-04-07T18:56:21.801Z,54.04
2023-04-07T18:58:48.786Z,54.02
2023-04-07T19:01:18.186Z,54.21
2023-04-07T19:03:45.765Z,54.29
2023-04-07T19:06:15.930Z,54.48
2023-04-07T19:08:46.666Z,54.84
2023-04-07T19:11:14.323Z,55.06
2023-04-07T19:13:41.163Z,55.41
2023-04-07T19:16:07.761Z,55.99
2023-04-07T19:18:34.938Z,56.83
2023-04-07T19:21:01.891Z,57.48
2023-04-07T19:23:30.072Z,58.10
2023-04-07T19:25:56.416Z,58.58
2023-04-07T19:28:27.640Z,59.12
2023-04-07T19:30:54.758Z,59.79
2023-04-07T19:33:22.680Z,60.50
2023-04-07T19:35:49.998Z,60.86
2023-04-07T19:38:16.967Z,61.28
2023-04-07T19:40:43.722Z,61.88
2023-04-07T19:43:10.309Z,62.69
2023-04-07T19:45:36.934Z,62.96
2023-04-07T19:48:05.997Z,63.25
2023-04-07T19:50:33.116Z,63.41
2023-04-07T19:52:59.742Z,63.50
2023-04-07T19:55:26.907Z,64.19
2023-04-07T19:57:53.534Z,65.36
2023-04-07T20:00:20.890Z,65.81
2023-04-07T20:03:07.703Z,66.38
2023-04-07T20:05:34.446Z,66.64
2023-04-07T20:08:01.348Z,66.81
2023-04-07T20:10:27.832Z,67.29
2023-04-07T20:12:54.973Z,67.69
2023-04-07T20:15:23.915Z,68.00
2023-04-07T20:17:51.251Z,68.18
2023-04-07T20:20:23.176Z,68.38
2023-04-07T20:22:52.000Z,68.54
2023-04-07T20:29:14.749Z,68.02
2023-04-07T20:31:42.219Z,67.97
2023-04-07T20:34:09.309Z,67.47
2023-04-07T20:36:36.594Z,67.26
2023-04-07T20:39:04.325Z,66.56
2023-04-07T20:41:32.237Z,65.60
2023-04-07T20:43:59.916Z,65.11
2023-04-07T20:46:30.154Z,64.52
2023-04-07T20:48:57.854Z,64.01
2023-04-07T20:51:24.827Z,63.11
2023-04-07T20:53:52.614Z,62.45
2023-04-07T20:56:20.009Z,61.96
2023-04-07T20:58:54.204Z,61.60
2023-04-07T21:01:22.007Z,61.31
2023-04-07T21:03:49.792Z,61.16
2023-04-07T21:06:17.569Z,61.19
2023-04-07T21:08:46.634Z,61.04
2023-04-07T21:11:14.114Z,61.04
2023-04-07T21:13:41.504Z,60.89
2023-04-07T21:16:08.843Z,60.89
2023-04-07T21:18:36.778Z,61.11
2023-04-07T21:21:04.577Z,61.12
2023-04-07T21:23:32.876Z,61.30
2023-04-07T21:26:01.919Z,61.30
2023-04-07T21:28:35.732Z,61.59
2023-04-07T21:31:04.069Z,61.71
2023-04-07T21:33:31.367Z,61.78
2023-04-07T21:36:00.732Z,61.93
2023-04-07T21:38:27.937Z,61.97
2023-04-07T21:40:56.612Z,62.10
2023-04-07T21:43:24.768Z,62.06
2023-04-07T21:45:52.595Z,62.22
2023-04-07T21:48:23.721Z,62.28
2023-04-07T21:50:52.301Z,62.50
2023-04-07T22:00:39.068Z,62.92
2023-04-07T22:03:08.035Z,63.11
2023-04-07T22:05:38.671Z,63.18
2023-04-07T22:08:06.806Z,63.36
2023-04-07T22:10:34.123Z,63.44
2023-04-07T22:13:02.130Z,63.53
2023-04-07T22:15:31.086Z,63.78
2023-04-07T22:17:58.601Z,63.87
2023-04-07T22:20:28.031Z,63.78
2023-04-07T22:22:57.986Z,64.16
2023-04-07T22:25:25.599Z,64.40
2023-04-07T22:27:52.737Z,64.45
2023-04-07T22:30:20.711Z,64.70
2023-04-07T22:32:51.886Z,64.75
2023-04-07T22:35:19.177Z,64.91
2023-04-07T22:37:46.380Z,65.02
2023-04-07T22:40:13.573Z,65.06
2023-04-07T22:42:41.084Z,65.21
2023-04-07T22:45:10.025Z,65.31
2023-04-07T22:47:37.205Z,65.47
2023-04-07T22:50:04.766Z,65.74
2023-04-07T22:52:32.430Z,65.68
2023-04-07T22:54:59.544Z,65.92
2023-04-07T22:57:26.968Z,66.17
2023-04-07T22:59:54.399Z,66.16
2023-04-07T23:02:21.409Z,66.38
2023-04-07T23:04:49.696Z,66.50
2023-04-07T23:07:16.795Z,66.31
2023-04-07T23:09:50.463Z,66.16
2023-04-07T23:12:19.165Z,66.18
2023-04-07T23:14:46.659Z,66.09
2023-04-07T23:17:18.220Z,66.18
2023-04-07T23:19:45.518Z,65.98
2023-04-07T23:22:12.549Z,66.09
2023-04-07T23:24:41.714Z,66.10
2023-04-07T23:27:08.815Z,65.93
2023-04-07T23:29:41.319Z,65.08
2023-04-07T23:32:08.781Z,64.59
2023-04-07T23:34:35.800Z,64.45
2023-04-07T23:37:03.302Z,63.78
2023-04-07T23:39:31.344Z,63.32
2023-04-07T23:41:58.301Z,62.68
2023-04-07T23:44:25.393Z,62.31
2023-04-07T23:46:52.587Z,62.07
2023-04-07T23:49:19.713Z,61.99
2023-04-07T23:51:46.584Z,61.82
2023-04-07T23:54:25.218Z,61.59
2023-04-07T23:56:52.146Z,61.66
2023-04-07T23:59:19.058Z,61.68
